Time;durP1;ratioP1;P1;durP2;ratioP2;P2;SDS_P1;SDS_P2;PMS_P1;PMS_P2;Temp;Humidity;BMP_temperature;BMP_pressure;BME280_temperature;BME280_humidity;BME280_pressure;Samples;Min_cycle;Max_cycle;Signal;HPM_P1;HPM_P2
2021/01/06 00:02:10;;;;;;;9.85;7.82;;;22.30;36.40;;;;;;5128049;27;20089;-62
2021/01/06 00:04:37;;;;;;;10.02;7.78;;;22.30;36.50;;;;;;5128689;27;20376;-65
2021/01/06 00:07:03;;;;;;;10.63;7.55;;;22.30;36.50;;;;;;5129198;27;20476;-64
2021/01/06 00:09:31;;;;;;;9.75;7.43;;;22.30;36.50;;;;;;5129022;27;20079;-65
2021/01/06 00:11:57;;;;;;;11.63;8.18;;;22.30;36.50;;;;;;5129158;27;20035;-61
2021/01/06 00:14:24;;;;;;;10.02;7.68;;;22.30;36.50;;;;;;5128937;27;20137;-62
2021/01/06 00:16:53;;;;;;;11.27;8.40;;;22.30;36.50;;;;;;5127873;27;20134;-62
2021/01/06 00:19:20;;;;;;;10.38;7.75;;;22.30;36.50;;;;;;5128341;27;20043;-62
2021/01/06 00:21:47;;;;;;;10.30;7.20;;;22.30;36.50;;;;;;5128599;27;20699;-62
2021/01/06 00:24:18;;;;;;;8.80;7.05;;;22.30;37.00;;;;;;5128488;27;20500;-62
2021/01/06 00:26:44;;;;;;;8.20;6.60;;;22.30;36.30;;;;;;5128760;27;20067;-62
2021/01/06 00:29:12;;;;;;;9.25;6.82;;;22.30;36.30;;;;;;5130403;27;20083;-62
2021/01/06 00:31:41;;;;;;;10.07;7.15;;;22.30;36.30;;;;;;5126865;27;20046;-64
2021/01/06 00:34:10;;;;;;;9.85;6.72;;;22.30;36.30;;;;;;5129246;27;20093;-62
2021/01/06 00:36:36;;;;;;;9.02;7.38;;;22.30;36.30;;;;;;5110105;28;20079;-62
2021/01/06 00:39:05;;;;;;;9.35;6.47;;;22.30;36.30;;;;;;5128593;27;20587;-62
2021/01/06 00:41:35;;;;;;;9.20;7.05;;;22.30;36.20;;;;;;5128179;27;20472;-62
2021/01/06 00:44:03;;;;;;;9.18;7.00;;;22.30;36.20;;;;;;5128525;27;20139;-63
2021/01/06 00:46:33;;;;;;;8.10;6.95;;;22.30;36.10;;;;;;5110205;28;20130;-66
2021/01/06 00:49:01;;;;;;;6.10;5.45;;;22.40;36.20;;;;;;5128651;28;20617;-62
2021/01/06 00:51:28;;;;;;;8.32;6.47;;;22.30;36.10;;;;;;5128180;28;20043;-62
2021/01/06 00:53:54;;;;;;;7.57;6.18;;;22.30;36.10;;;;;;5127899;28;20138;-62
2021/01/06 00:56:31;;;;;;;9.48;7.00;;;22.40;36.10;;;;;;5127933;28;20049;-62
2021/01/06 00:58:58;;;;;;;9.18;6.47;;;22.30;36.10;;;;;;5127977;28;20551;-62
2021/01/06 01:01:27;;;;;;;9.45;6.95;;;22.30;36.10;;;;;;5127719;28;20041;-62
2021/01/06 01:03:53;;;;;;;9.85;7.00;;;22.30;36.10;;;;;;5127481;28;20047;-62
2021/01/06 01:06:29;;;;;;;8.70;6.97;;;22.30;36.10;;;;;;5128247;28;20047;-62
2021/01/06 01:08:57;;;;;;;8.25;6.65;;;22.40;36.10;;;;;;5128006;28;20972;-62
2021/01/06 01:11:24;;;;;;;7.88;6.15;;;22.40;36.10;;;;;;5128175;28;20107;-62
2021/01/06 01:13:53;;;;;;;7.05;6.30;;;22.30;36.10;;;;;;5128289;28;20080;-62
2021/01/06 01:16:22;;;;;;;7.50;6.10;;;22.30;36.10;;;;;;5127832;28;20047;-66
2021/01/06 01:18:49;;;;;;;8.32;6.22;;;22.30;36.10;;;;;;5110163;28;20510;-62
2021/01/06 01:21:18;;;;;;;8.02;6.00;;;22.30;36.10;;;;;;5127023;28;20047;-62
2021/01/06 01:23:45;;;;;;;7.35;6.38;;;22.30;36.10;;;;;;5110192;28;20134;-62
2021/01/06 01:26:12;;;;;;;7.30;6.20;;;22.30;36.10;;;;;;5127910;28;20139;-64
2021/01/06 01:28:40;;;;;;;7.78;5.97;;;22.30;36.10;;;;;;5127977;28;20096;-62
2021/01/06 01:31:07;;;;;;;6.65;5.28;;;22.30;36.00;;;;;;5128343;28;20194;-65
2021/01/06 01:33:33;;;;;;;8.18;5.97;;;22.30;36.00;;;;;;5128280;28;20071;-62
2021/01/06 01:36:00;;;;;;;7.68;5.90;;;22.30;36.00;;;;;;5127493;28;20078;-62
2021/01/06 01:38:30;;;;;;;7.07;5.50;;;22.30;35.90;;;;;;5127907;28;20074;-62
2021/01/06 01:41:08;;;;;;;8.00;6.00;;;22.40;36.00;;;;;;5127970;28;20047;-62
2021/01/06 01:43:36;;;;;;;7.00;5.80;;;22.30;35.90;;;;;;5130608;27;20055;-62
2021/01/06 01:46:38;;;;;;;7.10;6.05;;;22.30;36.00;;;;;;5131711;27;20104;-64
2021/01/06 01:49:12;;;;;;;10.20;6.53;;;22.30;35.90;;;;;;5131887;27;20508;-62
2021/01/06 01:51:59;;;;;;;7.75;6.22;;;22.30;36.00;;;;;;5131445;27;20123;-65
2021/01/06 01:54:26;;;;;;;7.68;5.85;;;22.30;35.90;;;;;;5112924;27;20659;-62
2021/01/06 01:57:09;;;;;;;7.40;5.93;;;22.30;35.90;;;;;;5131432;27;20074;-62
2021/01/06 01:59:52;;;;;;;8.43;5.88;;;22.30;35.90;;;;;;5131357;27;20082;-65
2021/01/06 02:02:29;;;;;;;6.35;5.57;;;22.30;35.90;;;;;;5130718;27;20071;-65
2021/01/06 02:05:02;;;;;;;7.10;5.45;;;22.30;35.90;;;;;;5130735;27;20051;-62
2021/01/06 02:07:36;;;;;;;6.60;5.38;;;22.30;35.90;;;;;;5131269;27;20582;-62
2021/01/06 02:10:23;;;;;;;8.48;6.10;;;22.30;35.90;;;;;;5131116;27;20472;-62
2021/01/06 02:12:57;;;;;;;7.03;5.50;;;22.30;36.00;;;;;;5131306;27;20127;-62
2021/01/06 02:15:47;;;;;;;7.40;5.90;;;22.30;36.00;;;;;;5130380;27;20050;-65
2021/01/06 02:18:14;;;;;;;7.72;5.65;;;22.30;36.00;;;;;;5113043;27;20107;-62
2021/01/06 02:20:41;;;;;;;8.27;5.93;;;22.30;36.00;;;;;;5130790;27;20050;-62
2021/01/06 02:23:09;;;;;;;7.85;5.55;;;22.30;36.00;;;;;;5130669;27;20492;-62
2021/01/06 02:25:39;;;;;;;6.63;5.28;;;22.30;35.90;;;;;;5131031;27;20206;-62
2021/01/06 02:28:08;;;;;;;7.30;5.30;;;22.30;35.90;;;;;;5130654;27;20727;-62
2021/01/06 02:30:34;;;;;;;6.60;5.63;;;22.30;35.90;;;;;;5130689;27;20437;-62
2021/01/06 02:33:01;;;;;;;7.53;5.70;;;22.30;35.80;;;;;;5130610;27;20123;-62
2021/01/06 02:35:28;;;;;;;5.65;4.97;;;22.30;35.80;;;;;;5130394;27;20083;-62
2021/01/06 02:37:55;;;;;;;6.55;5.30;;;22.30;35.80;;;;;;5130995;27;20096;-62
2021/01/06 02:40:25;;;;;;;6.45;5.50;;;22.30;35.80;;;;;;5129880;27;20042;-62
2021/01/06 02:42:52;;;;;;;7.03;5.53;;;22.30;35.80;;;;;;5130067;27;20261;-62
2021/01/06 02:45:20;;;;;;;5.53;5.00;;;22.30;35.80;;;;;;5130024;27;20106;-62
2021/01/06 02:47:50;;;;;;;5.93;5.13;;;22.30;35.80;;;;;;5129816;27;20078;-62
2021/01/06 02:50:21;;;;;;;6.80;5.15;;;22.30;35.80;;;;;;5129817;27;20559;-62
2021/01/06 02:52:59;;;;;;;7.05;5.60;;;22.30;35.80;;;;;;5130284;27;20088;-65
2021/01/06 02:55:29;;;;;;;5.45;4.65;;;22.30;35.90;;;;;;5129113;27;20082;-65
2021/01/06 02:58:00;;;;;;;6.88;5.80;;;22.30;35.90;;;;;;5129611;27;20480;-62
2021/01/06 03:00:27;;;;;;;6.28;4.68;;;22.20;35.80;;;;;;5129878;27;20074;-62
2021/01/06 03:02:54;;;;;;;7.72;5.63;;;22.20;35.80;;;;;;5130321;27;20126;-62
2021/01/06 03:05:42;;;;;;;6.10;4.88;;;22.20;35.90;;;;;;5129819;27;20078;-62
2021/01/06 03:08:14;;;;;;;7.80;5.25;;;22.20;35.90;;;;;;5130357;27;20039;-63
2021/01/06 03:10:41;;;;;;;6.25;4.78;;;22.20;35.90;;;;;;5129635;27;20051;-65
2021/01/06 03:13:08;;;;;;;7.05;5.25;;;22.20;35.90;;;;;;5129708;27;20129;-62
2021/01/06 03:15:36;;;;;;;6.30;4.88;;;22.20;35.80;;;;;;5129831;27;20166;-62
2021/01/06 03:18:03;;;;;;;6.05;4.90;;;22.20;35.80;;;;;;5129545;27;20047;-62
2021/01/06 03:20:41;;;;;;;5.90;4.55;;;22.30;35.80;;;;;;5129538;27;20126;-62
2021/01/06 03:23:17;;;;;;;7.90;5.78;;;22.30;35.80;;;;;;5129345;27;20467;-65
2021/01/06 03:25:44;;;;;;;6.70;5.03;;;22.30;35.70;;;;;;5129127;27;20057;-64
2021/01/06 03:28:14;;;;;;;6.60;5.10;;;22.30;35.80;;;;;;5109768;27;20104;-65
2021/01/06 03:30:42;;;;;;;6.10;4.90;;;22.30;35.70;;;;;;5128624;27;20069;-61
2021/01/06 03:33:28;;;;;;;7.82;5.50;;;22.30;35.70;;;;;;5128754;27;20078;-62
2021/01/06 03:36:08;;;;;;;7.82;5.82;;;22.20;35.70;;;;;;5128517;27;20070;-62
2021/01/06 03:38:39;;;;;;;6.72;5.22;;;22.20;35.70;;;;;;5129138;27;20043;-62
2021/01/06 03:41:07;;;;;;;8.48;5.85;;;22.20;35.70;;;;;;5128861;27;20142;-65
2021/01/06 03:43:39;;;;;;;8.30;5.88;;;22.20;35.70;;;;;;5129455;27;20078;-61
2021/01/06 03:46:25;;;;;;;6.53;5.07;;;22.20;35.70;;;;;;5128730;27;20130;-62
2021/01/06 03:49:12;;;;;;;5.07;4.40;;;22.20;35.70;;;;;;5128451;27;20212;-62
2021/01/06 03:51:50;;;;;;;6.38;5.32;;;22.20;35.70;;;;;;5126883;27;20434;-62
2021/01/06 03:54:56;;;;;;;7.10;4.97;;;22.20;35.70;;;;;;5125367;27;20199;-62
2021/01/06 03:57:25;;;;;;;5.53;4.70;;;22.20;35.70;;;;;;5127070;27;20108;-62
2021/01/06 03:59:55;;;;;;;6.32;5.18;;;22.20;35.70;;;;;;5127894;27;20047;-62
2021/01/06 04:02:44;;;;;;;5.97;5.28;;;22.20;35.70;;;;;;5128755;27;20043;-62
2021/01/06 04:05:15;;;;;;;6.43;4.78;;;22.20;35.70;;;;;;5127522;27;20104;-65
2021/01/06 04:07:52;;;;;;;8.40;5.85;;;22.20;35.80;;;;;;5129072;27;20075;-65
2021/01/06 04:10:28;;;;;;;6.70;5.15;;;22.20;35.80;;;;;;5125551;27;20043;-62
2021/01/06 04:12:55;;;;;;;6.40;5.35;;;22.20;35.70;;;;;;5125479;27;20043;-63
2021/01/06 04:15:22;;;;;;;5.82;4.50;;;22.20;35.70;;;;;;5128324;27;20100;-65
2021/01/06 04:17:51;;;;;;;6.05;4.78;;;22.20;35.70;;;;;;5128454;27;20480;-62
2021/01/06 04:20:32;;;;;;;6.40;4.97;;;22.20;35.70;;;;;;5125746;27;20050;-62
2021/01/06 04:23:02;;;;;;;6.57;5.35;;;22.20;35.70;;;;;;5127944;27;20805;-66
2021/01/06 04:25:40;;;;;;;6.97;5.03;;;22.20;35.70;;;;;;5128881;27;20123;-62
2021/01/06 04:28:16;;;;;;;6.43;5.30;;;22.20;35.70;;;;;;5127355;27;20074;-62
2021/01/06 04:30:56;;;;;;;6.97;5.63;;;22.20;35.70;;;;;;5125733;27;20130;-62
2021/01/06 04:33:38;;;;;;;6.13;4.85;;;22.20;35.70;;;;;;5108547;28;20061;-65
2021/01/06 04:36:14;;;;;;;6.32;5.35;;;22.20;35.70;;;;;;5108633;28;20169;-65
2021/01/06 04:38:44;;;;;;;6.95;5.60;;;22.20;35.70;;;;;;5108311;28;20094;-62
2021/01/06 04:41:44;;;;;;;5.80;4.65;;;22.20;35.70;;;;;;5109711;28;20512;-65
2021/01/06 04:44:46;;;;;;;5.97;5.15;;;22.20;35.70;;;;;;5094898;28;20106;-61
2021/01/06 04:47:47;;;;;;;5.72;4.93;;;22.20;35.70;;;;;;5112197;28;20069;-64
2021/01/06 04:50:49;;;;;;;7.55;5.82;;;22.10;35.70;;;;;;5112383;28;20077;-65
2021/01/06 04:53:45;;;;;;;6.10;4.78;;;22.10;35.70;;;;;;5111372;28;20090;-66
2021/01/06 04:56:47;;;;;;;6.95;5.32;;;22.10;35.70;;;;;;5097335;28;20082;-66
2021/01/06 04:59:44;;;;;;;7.68;5.47;;;22.10;35.70;;;;;;5093248;28;20130;-65
2021/01/06 05:02:50;;;;;;;8.05;5.75;;;22.20;35.80;;;;;;5092448;28;20576;-65
2021/01/06 05:05:52;;;;;;;5.75;4.78;;;22.10;35.70;;;;;;5107245;28;20039;-65
2021/01/06 05:08:34;;;;;;;7.35;4.75;;;22.20;35.70;;;;;;5107397;28;20131;-62
2021/01/06 05:11:12;;;;;;;6.22;5.40;;;22.20;35.70;;;;;;5106782;28;20047;-62
2021/01/06 05:14:03;;;;;;;5.80;4.78;;;22.10;35.70;;;;;;5107104;28;20127;-62
2021/01/06 05:16:40;;;;;;;5.53;4.75;;;22.10;35.70;;;;;;5091946;28;20102;-62
2021/01/06 05:19:24;;;;;;;5.57;4.78;;;22.10;35.70;;;;;;5110877;28;20079;-62
2021/01/06 05:21:52;;;;;;;6.10;5.18;;;22.10;35.70;;;;;;5110727;28;20051;-62
2021/01/06 05:24:30;;;;;;;5.18;4.35;;;22.10;35.70;;;;;;5093364;28;20067;-62
2021/01/06 05:27:18;;;;;;;6.38;4.90;;;22.10;35.70;;;;;;5111030;28;20091;-61
2021/01/06 05:29:51;;;;;;;5.53;4.40;;;22.10;35.70;;;;;;5111049;28;20069;-62
2021/01/06 05:32:31;;;;;;;6.43;4.67;;;22.20;35.80;;;;;;5111010;28;20121;-65
2021/01/06 05:35:08;;;;;;;6.47;5.25;;;22.10;35.80;;;;;;5094450;28;20222;-65
2021/01/06 05:37:37;;;;;;;5.95;4.85;;;22.10;35.80;;;;;;5111021;28;20071;-62
2021/01/06 05:40:13;;;;;;;6.45;4.35;;;22.10;35.80;;;;;;5111343;28;20126;-62
2021/01/06 05:42:56;;;;;;;7.45;5.43;;;22.10;35.80;;;;;;5110818;28;20121;-61
2021/01/06 05:45:27;;;;;;;6.32;4.57;;;22.10;35.80;;;;;;5111693;28;20087;-62
2021/01/06 05:48:06;;;;;;;6.72;4.90;;;22.10;35.80;;;;;;5110466;28;20043;-62
2021/01/06 05:50:39;;;;;;;6.82;5.00;;;22.10;35.80;;;;;;5110736;28;20126;-62
2021/01/06 05:53:20;;;;;;;5.65;4.68;;;22.10;35.70;;;;;;5110001;28;20043;-65
2021/01/06 05:55:50;;;;;;;5.25;4.53;;;22.20;35.80;;;;;;5105739;27;20051;-62
2021/01/06 05:58:26;;;;;;;6.70;4.80;;;22.10;35.70;;;;;;5128637;27;20047;-62
2021/01/06 06:01:16;;;;;;;5.05;4.47;;;22.10;35.70;;;;;;5127905;27;20039;-65
2021/01/06 06:03:51;;;;;;;;;;;22.20;35.80;;;;;;5125202;27;20074;-65
2021/01/06 06:06:45;;;;;;;7.50;5.20;;;22.10;35.70;;;;;;5123368;27;19963;-62
2021/01/06 06:09:54;;;;;;;6.53;5.00;;;22.20;35.80;;;;;;5126539;27;20043;-62
2021/01/06 06:12:47;;;;;;;7.60;5.60;;;22.10;35.70;;;;;;5115020;27;20043;-62
2021/01/06 06:15:49;;;;;;;7.32;5.65;;;22.10;35.70;;;;;;5125514;27;20050;-62
2021/01/06 06:18:40;;;;;;;7.43;6.32;;;22.10;35.60;;;;;;5125199;27;20495;-62
2021/01/06 06:21:22;;;;;;;7.53;5.75;;;22.10;35.50;;;;;;5124252;27;20051;-63
2021/01/06 06:24:29;;;;;;;7.22;5.90;;;22.10;35.40;;;;;;5117674;27;20130;-62
2021/01/06 06:27:29;;;;;;;7.85;6.07;;;22.20;35.60;;;;;;5127322;27;20111;-65
2021/01/06 06:30:15;;;;;;;6.57;5.75;;;22.30;35.50;;;;;;5121315;27;20509;-62
2021/01/06 06:32:44;;;;;;;8.10;6.13;;;22.30;35.50;;;;;;5127702;27;20051;-62
2021/01/06 06:35:35;;;;;;;9.57;6.75;;;22.40;35.40;;;;;;5125889;27;20061;-65
2021/01/06 06:38:05;;;;;;;9.07;7.38;;;22.50;35.30;;;;;;5100887;27;20907;-61
2021/01/06 06:40:55;;;;;;;9.20;7.70;;;22.50;35.10;;;;;;5124152;27;20047;-65
2021/01/06 06:43:30;;;;;;;10.10;7.87;;;22.60;35.00;;;;;;5125622;27;20135;-65
2021/01/06 06:46:24;;;;;;;11.43;7.93;;;22.70;34.80;;;;;;5118662;27;20474;-66
2021/01/06 06:49:24;;;;;;;11.77;8.90;;;22.70;34.60;;;;;;5113355;27;20074;-62
2021/01/06 06:52:15;;;;;;;12.15;8.93;;;22.80;34.40;;;;;;5123254;27;20061;-63
2021/01/06 06:55:14;;;;;;;17.75;10.88;;;22.90;34.20;;;;;;5116316;27;20126;-66
2021/01/06 06:58:01;;;;;;;14.68;10.13;;;22.90;34.00;;;;;;5121640;27;20056;-66
2021/01/06 07:00:29;;;;;;;14.98;10.57;;;23.00;33.90;;;;;;5121066;27;20043;-66
2021/01/06 07:03:05;;;;;;;14.43;10.65;;;23.10;33.80;;;;;;5126437;27;20577;-64
2021/01/06 07:05:48;;;;;;;14.75;10.00;;;23.10;33.70;;;;;;5109954;27;20047;-67
2021/01/06 07:08:36;;;;;;;13.65;9.93;;;23.20;33.70;;;;;;5121827;27;20122;-66
2021/01/06 07:11:19;;;;;;;14.93;11.38;;;23.30;33.70;;;;;;5124878;27;20077;-62
2021/01/06 07:13:52;;;;;;;15.50;11.20;;;23.30;33.60;;;;;;5127922;27;20039;-66
2021/01/06 07:16:31;;;;;;;15.85;10.32;;;23.30;33.70;;;;;;5121230;27;20036;-66
2021/01/06 07:19:18;;;;;;;15.57;11.30;;;23.30;33.90;;;;;;5117210;27;20062;-65
2021/01/06 07:21:51;;;;;;;16.17;9.85;;;23.30;34.00;;;;;;5132334;27;20039;-65
2021/01/06 07:24:19;;;;;;;14.25;10.57;;;23.30;34.30;;;;;;5125095;27;20051;-66
2021/01/06 07:26:54;;;;;;;17.58;11.02;;;23.30;34.50;;;;;;5127371;27;20092;-67
2021/01/06 07:29:23;;;;;;;16.17;11.20;;;23.40;34.60;;;;;;5120770;27;20492;-68
2021/01/06 07:31:59;;;;;;;16.10;11.70;;;23.40;34.70;;;;;;5126904;27;20092;-64
2021/01/06 07:34:53;;;;;;;15.25;10.80;;;23.40;34.70;;;;;;5119326;27;20118;-73
2021/01/06 07:37:35;;;;;;;14.55;10.73;;;23.50;34.80;;;;;;5104523;27;20487;-68
2021/01/06 07:40:32;;;;;;;17.70;11.27;;;23.50;34.80;;;;;;5117112;27;20053;-67
2021/01/06 07:43:19;;;;;;;16.83;12.13;;;23.60;34.90;;;;;;5123498;27;20047;-64
2021/01/06 07:46:11;;;;;;;15.80;11.35;;;23.60;34.90;;;;;;5116595;27;20140;-70
2021/01/06 07:48:56;;;;;;;14.32;11.10;;;23.60;34.80;;;;;;5100097;27;20196;-71
2021/01/06 07:51:58;;;;;;;16.02;11.90;;;23.70;34.90;;;;;;5122338;27;20082;-68
2021/01/06 07:54:42;;;;;;;15.13;11.95;;;23.70;34.80;;;;;;5103821;27;20045;-66
2021/01/06 07:57:27;;;;;;;17.45;12.23;;;23.70;34.90;;;;;;5121112;27;20115;-66
2021/01/06 08:00:00;;;;;;;15.45;11.70;;;23.80;34.90;;;;;;5102473;27;20107;-66
2021/01/06 08:02:41;;;;;;;16.23;12.00;;;23.80;34.70;;;;;;5118170;27;20039;-67
2021/01/06 08:05:30;;;;;;;16.30;11.63;;;23.80;34.50;;;;;;5100354;27;20088;-63
2021/01/06 08:08:11;;;;;;;17.92;12.35;;;23.80;34.40;;;;;;5119742;27;20059;-62
2021/01/06 08:10:47;;;;;;;15.45;11.70;;;23.80;34.20;;;;;;5123318;27;20756;-64
2021/01/06 08:13:27;;;;;;;16.92;12.15;;;23.90;34.10;;;;;;5120297;27;20088;-63
2021/01/06 08:16:33;;;;;;;17.20;13.07;;;23.90;34.10;;;;;;5104676;27;20046;-69
2021/01/06 08:19:14;;;;;;;15.88;12.77;;;23.90;34.10;;;;;;5104430;27;20077;-66
2021/01/06 08:22:11;;;;;;;17.15;13.20;;;23.90;34.20;;;;;;5117805;27;20053;-67
2021/01/06 08:24:46;;;;;;;18.77;13.93;;;23.90;34.20;;;;;;5125691;27;20070;-66
2021/01/06 08:27:15;;;;;;;17.95;12.82;;;23.90;34.20;;;;;;5120864;27;20045;-62
2021/01/06 08:29:42;;;;;;;17.27;13.13;;;23.90;34.20;;;;;;5123041;27;20141;-63
2021/01/06 08:32:23;;;;;;;18.60;13.40;;;23.90;34.10;;;;;;5125957;27;20039;-66
2021/01/06 08:34:58;;;;;;;17.30;13.05;;;23.90;34.10;;;;;;5121420;27;20863;-66
2021/01/06 08:37:33;;;;;;;18.45;13.23;;;23.90;34.10;;;;;;5124047;27;20063;-67
2021/01/06 08:40:02;;;;;;;17.00;13.45;;;23.90;34.20;;;;;;5115686;27;20059;-64
2021/01/06 08:42:46;;;;;;;19.30;13.90;;;23.90;34.20;;;;;;5119730;27;20039;-66
2021/01/06 08:45:32;;;;;;;19.52;13.95;;;23.90;34.20;;;;;;5122587;27;20055;-66
2021/01/06 08:48:23;;;;;;;18.85;13.93;;;23.90;34.10;;;;;;5103867;27;20073;-66
2021/01/06 08:50:51;;;;;;;16.73;13.13;;;23.90;34.10;;;;;;5124048;27;20047;-66
2021/01/06 08:53:29;;;;;;;19.25;14.40;;;23.90;34.10;;;;;;5116183;27;20108;-66
2021/01/06 08:55:59;;;;;;;19.25;14.55;;;23.90;34.20;;;;;;5121114;27;20051;-64
2021/01/06 08:58:44;;;;;;;20.38;14.07;;;24.00;34.10;;;;;;5106380;27;20136;-63
2021/01/06 09:01:34;;;;;;;18.05;14.40;;;24.10;34.10;;;;;;5121165;27;20077;-66
2021/01/06 09:04:17;;;;;;;18.80;14.48;;;24.00;34.00;;;;;;5124888;27;20118;-65
2021/01/06 09:07:17;;;;;;;18.98;14.57;;;24.00;34.20;;;;;;5107921;27;20049;-63
2021/01/06 09:10:04;;;;;;;;;;;24.00;34.30;;;;;;5119725;27;20139;-62
2021/01/06 09:13:04;;;;;;;18.08;14.23;;;23.90;34.20;;;;;;5125366;27;19951;-66
2021/01/06 09:15:40;;;;;;;20.33;14.95;;;24.00;34.20;;;;;;5121502;27;20067;-66
2021/01/06 09:18:23;;;;;;;20.45;14.40;;;23.90;34.10;;;;;;5127260;27;20750;-66
2021/01/06 09:21:23;;;;;;;21.40;15.32;;;23.90;34.10;;;;;;5124213;27;20124;-63
2021/01/06 09:23:52;;;;;;;20.02;14.90;;;23.90;34.10;;;;;;5126778;27;20119;-66
2021/01/06 09:26:23;;;;;;;19.95;15.13;;;23.90;34.20;;;;;;5124426;27;20140;-65
2021/01/06 09:29:16;;;;;;;20.50;15.68;;;23.90;34.20;;;;;;5126496;27;20624;-65
2021/01/06 09:31:49;;;;;;;20.00;14.80;;;23.90;34.30;;;;;;5107292;27;20046;-67
2021/01/06 09:34:20;;;;;;;21.42;14.95;;;23.90;34.30;;;;;;5124860;27;20079;-62
2021/01/06 09:36:49;;;;;;;19.58;15.00;;;24.00;34.50;;;;;;5121204;27;20073;-65
2021/01/06 09:39:21;;;;;;;20.88;14.73;;;24.00;34.60;;;;;;5116888;27;20126;-63
2021/01/06 09:41:51;;;;;;;19.88;14.80;;;24.00;34.70;;;;;;5120878;27;20047;-63
2021/01/06 09:44:17;;;;;;;20.80;14.83;;;24.10;34.70;;;;;;5125701;27;20067;-66
2021/01/06 09:47:23;;;;;;;21.00;14.38;;;24.10;34.70;;;;;;5120551;27;20290;-66
2021/01/06 09:49:57;;;;;;;18.48;14.07;;;24.20;34.70;;;;;;5124668;27;20146;-65
2021/01/06 09:52:34;;;;;;;19.63;15.23;;;24.20;34.70;;;;;;5108132;27;20043;-64
2021/01/06 09:55:01;;;;;;;18.40;13.57;;;24.30;34.70;;;;;;5127657;27;20080;-66
2021/01/06 09:57:29;;;;;;;20.05;14.02;;;24.30;34.90;;;;;;5116852;27;20058;-66
2021/01/06 10:00:34;;;;;;;19.30;13.40;;;24.30;35.00;;;;;;5126778;27;20126;-62
2021/01/06 10:03:02;;;;;;;17.75;13.88;;;24.30;35.10;;;;;;5131631;27;20075;-66
2021/01/06 10:05:52;;;;;;;19.00;13.75;;;24.30;35.20;;;;;;5139722;27;20051;-66
2021/01/06 10:08:41;;;;;;;18.20;14.05;;;24.30;35.30;;;;;;5140154;27;20070;-67
2021/01/06 10:11:28;;;;;;;15.20;12.15;;;24.30;35.30;;;;;;5140500;27;20097;-70
2021/01/06 10:14:26;;;;;;;17.65;12.75;;;24.30;35.20;;;;;;5139654;27;20138;-67
2021/01/06 10:17:01;;;;;;;16.90;12.82;;;24.30;35.10;;;;;;5119606;27;20055;-66
2021/01/06 10:20:07;;;;;;;20.02;13.65;;;24.30;35.00;;;;;;5118728;27;20085;-65
2021/01/06 10:22:54;;;;;;;15.13;12.50;;;24.30;34.70;;;;;;5139808;27;20074;-65
2021/01/06 10:25:44;;;;;;;15.55;11.70;;;24.30;34.50;;;;;;5139402;27;20134;-62
2021/01/06 10:28:34;;;;;;;14.73;12.05;;;24.30;34.30;;;;;;5139199;27;20071;-65
2021/01/06 10:31:12;;;;;;;16.73;11.47;;;24.30;34.30;;;;;;5124816;27;20101;-67
2021/01/06 10:34:09;;;;;;;16.88;11.73;;;24.30;34.40;;;;;;5139713;27;20396;-62
2021/01/06 10:37:10;;;;;;;13.30;10.95;;;24.30;34.50;;;;;;5139381;27;20043;-65
2021/01/06 10:39:52;;;;;;;12.75;10.25;;;24.30;34.60;;;;;;5126408;27;20392;-65
2021/01/06 10:42:32;;;;;;;14.55;11.40;;;24.30;34.50;;;;;;5139303;27;20491;-65
2021/01/06 10:45:12;;;;;;;13.45;10.57;;;24.30;34.60;;;;;;5139356;27;20043;-66
2021/01/06 10:47:46;;;;;;;12.30;10.32;;;24.30;34.80;;;;;;5139070;27;20090;-68
2021/01/06 10:50:41;;;;;;;15.20;10.43;;;24.40;35.00;;;;;;5120658;27;20043;-66
2021/01/06 10:53:25;;;;;;;12.85;9.32;;;24.40;35.30;;;;;;5120983;27;20061;-64
2021/01/06 10:56:15;;;;;;;12.73;9.43;;;24.50;35.40;;;;;;5101331;27;20042;-61
2021/01/06 10:58:59;;;;;;;11.02;9.18;;;24.50;35.40;;;;;;5117174;27;20498;-63
2021/01/06 11:01:50;;;;;;;12.50;9.27;;;24.60;35.50;;;;;;5123970;27;20049;-63
2021/01/06 11:04:40;;;;;;;12.02;8.73;;;24.60;35.50;;;;;;5093033;27;20103;-60
2021/01/06 11:07:41;;;;;;;10.85;8.77;;;24.60;35.40;;;;;;5126643;27;20041;-64
2021/01/06 11:10:24;;;;;;;11.85;9.35;;;24.60;35.40;;;;;;5123468;27;20074;-64
2021/01/06 11:13:20;;;;;;;14.93;9.38;;;24.70;35.40;;;;;;5128564;27;20039;-66
2021/01/06 11:15:58;;;;;;;12.70;8.80;;;24.70;35.10;;;;;;5102450;27;20039;-62
2021/01/06 11:18:35;;;;;;;10.10;8.10;;;24.70;34.90;;;;;;5123110;27;20054;-65
2021/01/06 11:21:17;;;;;;;11.20;8.52;;;24.70;34.70;;;;;;5125656;27;20039;-61
2021/01/06 11:23:55;;;;;;;10.45;7.97;;;24.70;34.40;;;;;;5117955;27;20112;-63
2021/01/06 11:26:45;;;;;;;13.05;8.07;;;24.70;34.30;;;;;;5103769;27;20043;-62
2021/01/06 11:29:19;;;;;;;11.82;7.65;;;24.70;34.20;;;;;;5117496;27;20499;-64
2021/01/06 11:32:20;;;;;;;9.68;7.25;;;24.70;34.10;;;;;;5118430;27;20044;-64
2021/01/06 11:34:49;;;;;;;9.98;7.10;;;24.70;34.00;;;;;;5090728;27;20067;-65
2021/01/06 11:37:33;;;;;;;10.53;7.70;;;24.70;33.70;;;;;;5117438;27;20373;-64
2021/01/06 11:40:01;;;;;;;11.60;7.22;;;24.70;33.60;;;;;;5121969;27;20309;-64
2021/01/06 11:42:55;;;;;;;9.10;6.93;;;24.70;33.50;;;;;;5122275;27;20050;-65
2021/01/06 11:45:26;;;;;;;8.93;7.15;;;24.70;33.50;;;;;;5119856;27;20142;-64
2021/01/06 11:48:23;;;;;;;9.52;6.93;;;24.70;33.40;;;;;;5117603;27;20154;-64
2021/01/06 11:51:21;;;;;;;11.80;7.05;;;24.70;33.50;;;;;;5113651;27;20687;-64
2021/01/06 11:54:01;;;;;;;9.38;6.90;;;24.70;33.60;;;;;;5119415;27;20126;-64
2021/01/06 11:56:32;;;;;;;;;;;24.70;33.90;;;;;;5115376;27;20046;-66
2021/01/06 11:59:16;;;;;;;;;;;24.70;34.00;;;;;;5111684;27;19933;-62
2021/01/06 12:02:24;;;;;;;9.57;6.70;;;24.70;33.90;;;;;;5115918;27;19971;-64
2021/01/06 12:05:24;;;;;;;9.20;6.85;;;24.80;33.80;;;;;;5113245;27;20875;-66
2021/01/06 12:08:12;;;;;;;11.93;6.47;;;24.80;33.70;;;;;;5116500;27;20067;-66
2021/01/06 12:11:07;;;;;;;8.52;6.50;;;24.80;33.40;;;;;;5123572;27;20885;-64
2021/01/06 12:13:59;;;;;;;9.02;6.07;;;24.70;33.30;;;;;;5109090;27;20110;-62
2021/01/06 12:16:47;;;;;;;9.43;6.05;;;24.70;33.40;;;;;;5120771;27;20089;-68
2021/01/06 12:19:48;;;;;;;14.07;6.43;;;24.70;33.30;;;;;;5126066;27;20078;-66
2021/01/06 12:22:18;;;;;;;8.55;6.38;;;24.70;32.20;;;;;;5121990;27;20134;-64
2021/01/06 12:24:52;;;;;;;8.50;5.87;;;24.70;33.00;;;;;;5125446;27;20067;-65
2021/01/06 12:27:40;;;;;;;8.10;6.28;;;24.70;33.10;;;;;;5103413;27;20068;-68
2021/01/06 12:30:30;;;;;;;8.48;6.25;;;24.80;33.20;;;;;;5138097;27;20051;-69
2021/01/06 12:33:01;;;;;;;;;;;24.80;33.00;;;;;;5106887;27;20129;-65
2021/01/06 12:35:40;;;;;;;7.72;5.57;;;24.90;32.90;;;;;;5125415;27;19919;-65
2021/01/06 12:38:22;;;;;;;8.23;5.85;;;24.90;32.90;;;;;;5124283;27;20070;-65
2021/01/06 12:41:13;;;;;;;8.90;5.18;;;24.90;32.80;;;;;;5158719;27;20046;-68
2021/01/06 12:44:06;;;;;;;8.98;5.35;;;24.90;32.80;;;;;;5144085;27;20487;-66
2021/01/06 12:46:49;;;;;;;6.70;5.32;;;24.90;32.80;;;;;;5143047;27;20095;-65
2021/01/06 12:49:31;;;;;;;10.93;5.82;;;24.90;33.00;;;;;;5134380;27;20035;-68
2021/01/06 12:52:24;;;;;;;7.43;5.05;;;24.90;33.00;;;;;;5114465;27;20960;-69
2021/01/06 12:58:58;;;;;;;8.65;5.43;;;24.90;33.10;;;;;;5137653;28;20042;-69
2021/01/06 13:01:33;;;;;;;8.23;5.40;;;25.00;33.10;;;;;;5137468;28;20090;-66
2021/01/06 13:04:06;;;;;;;7.13;4.75;;;25.00;33.10;;;;;;5138129;28;20082;-68
2021/01/06 13:06:57;;;;;;;8.77;5.45;;;25.00;33.10;;;;;;5137846;28;20377;-69
2021/01/06 13:09:54;;;;;;;6.68;5.47;;;25.00;32.90;;;;;;5137466;28;20086;-68
2021/01/06 13:12:39;;;;;;;7.82;5.18;;;25.00;32.60;;;;;;5123020;28;20069;-66
2021/01/06 13:15:15;;;;;;;6.75;4.70;;;25.00;32.50;;;;;;5138164;28;20075;-64
2021/01/06 13:17:44;;;;;;;6.05;5.03;;;25.00;32.50;;;;;;5137652;28;20079;-67
2021/01/06 13:20:40;;;;;;;5.20;4.40;;;25.10;32.60;;;;;;5137957;28;20495;-63
2021/01/06 13:23:24;;;;;;;9.98;4.95;;;25.10;32.70;;;;;;5138166;28;20102;-68
2021/01/06 13:26:14;;;;;;;6.35;5.15;;;25.00;32.60;;;;;;5136945;28;20405;-64
2021/01/06 13:28:50;;;;;;;7.78;5.22;;;25.00;32.70;;;;;;5137895;28;20048;-66
2021/01/06 13:31:55;;;;;;;5.22;4.20;;;25.00;32.60;;;;;;5137865;28;20112;-67
2021/01/06 13:34:44;;;;;;;6.85;4.47;;;25.00;32.70;;;;;;5140664;28;20127;-66
2021/01/06 13:37:38;;;;;;;5.82;5.20;;;25.00;32.60;;;;;;5136939;27;20069;-63
2021/01/06 13:40:17;;;;;;;6.25;5.28;;;25.00;32.60;;;;;;5141623;27;20492;-66
2021/01/06 13:43:17;;;;;;;6.28;4.93;;;25.00;32.70;;;;;;5133301;27;20636;-67
2021/01/06 13:45:53;;;;;;;6.32;4.75;;;25.10;32.50;;;;;;5119212;27;20123;-67
2021/01/06 13:52:35;;;;;;;6.95;4.55;;;25.10;32.30;;;;;;5136208;27;20408;-66
2021/01/06 13:55:36;;;;;;;7.22;4.65;;;25.10;32.50;;;;;;5108597;27;20042;-63